createdAt,value
2023-03-23T00:00:00.125Z,63.2
2023-03-23T00:05:00.119Z,63.3
2023-03-23T00:10:00.136Z,63.4
2023-03-23T00:15:00.125Z,63.5
2023-03-23T00:20:00.105Z,63.6
2023-03-23T00:25:00.197Z,63.7
2023-03-23T00:30:00.143Z,63.5
2023-03-23T00:35:00.126Z,63.4
2023-03-23T00:40:00.104Z,63.2
2023-03-23T00:45:00.104Z,63.1
2023-03-23T00:50:00.184Z,63.3
2023-03-23T00:55:00.118Z,63.7
2023-03-23T01:00:05.695Z,64
2023-03-23T01:05:00.132Z,64.4
2023-03-23T01:10:00.144Z,64.8
2023-03-23T01:15:00.133Z,65.1
2023-03-23T01:20:00.112Z,65.4
2023-03-23T01:25:00.112Z,65.4
2023-03-23T01:30:00.178Z,65.3
2023-03-23T01:35:00.120Z,65.2
2023-03-23T01:40:00.106Z,65.2
2023-03-23T01:45:00.083Z,65.3
2023-03-23T01:50:00.141Z,65.3
2023-03-23T01:55:00.152Z,65.3
2023-03-23T02:00:00.119Z,65
2023-03-23T02:05:00.133Z,64.9
2023-03-23T02:10:00.135Z,64.9
2023-03-23T02:15:00.103Z,65.1
2023-03-23T02:20:00.190Z,65.2
2023-03-23T02:25:00.141Z,65
2023-03-23T02:30:00.191Z,64.7
2023-03-23T02:35:00.112Z,64.6
2023-03-23T02:40:00.116Z,64.7
2023-03-23T02:45:00.134Z,64.8
2023-03-23T02:50:00.181Z,64.7
2023-03-23T02:55:00.155Z,64.5
2023-03-23T03:00:00.135Z,64.3
2023-03-23T03:05:00.166Z,64.3
2023-03-23T03:10:00.127Z,64.5
2023-03-23T03:15:00.071Z,64.8
2023-03-23T03:20:00.168Z,64.8
2023-03-23T03:25:00.117Z,64.7
2023-03-23T03:30:00.115Z,64.7
2023-03-23T03:35:00.119Z,64.7
2023-03-23T03:40:00.121Z,64.5
2023-03-23T03:45:00.128Z,64.4
2023-03-23T03:50:00.136Z,64.4
2023-03-23T03:55:00.095Z,64.1
2023-03-23T04:00:00.137Z,64.1
2023-03-23T04:05:00.124Z,63.8
2023-03-23T04:10:00.143Z,63.5
2023-03-23T04:15:06.181Z,63.5
2023-03-23T04:20:00.151Z,63.1
2023-03-23T04:25:00.104Z,63.1
2023-03-23T04:30:00.196Z,63.2
2023-03-23T04:35:12.609Z,63.1
2023-03-23T04:40:00.152Z,63.1
2023-03-23T04:45:00.139Z,63.1
2023-03-23T04:50:00.146Z,63
2023-03-23T04:55:00.130Z,63
2023-03-23T05:00:00.137Z,63.1
2023-03-23T05:05:00.136Z,63.2
2023-03-23T05:10:00.132Z,63.5
2023-03-23T05:15:00.132Z,63.7
2023-03-23T05:20:00.121Z,64.1
2023-03-23T05:25:00.124Z,64.5
2023-03-23T05:30:00.177Z,65
2023-03-23T05:35:00.136Z,65.4
2023-03-23T05:40:00.101Z,66
2023-03-23T05:45:00.122Z,67.6
2023-03-23T05:50:00.164Z,68.4
2023-03-23T05:55:00.105Z,69.1
2023-03-23T06:00:00.230Z,69.4
2023-03-23T06:05:00.104Z,69.7
2023-03-23T06:10:00.170Z,69.9
2023-03-23T06:15:00.111Z,70.1
2023-03-23T06:20:00.104Z,70.3
2023-03-23T06:25:00.110Z,71.3
2023-03-23T06:30:00.185Z,71.7
2023-03-23T06:35:00.129Z,74
2023-03-23T06:40:00.118Z,75.5
2023-03-23T06:45:00.120Z,75.8
2023-03-23T06:50:00.126Z,75.6
2023-03-23T06:55:00.133Z,75.8
2023-03-23T07:00:00.161Z,75.9
2023-03-23T07:05:00.123Z,76
2023-03-23T07:10:00.165Z,75.4
2023-03-23T07:15:00.139Z,75.3
2023-03-23T07:20:00.157Z,74.7
2023-03-23T07:25:00.149Z,74.4
2023-03-23T07:30:00.165Z,74.6
2023-03-23T07:35:00.127Z,74.6
2023-03-23T07:40:00.160Z,74.8
2023-03-23T07:45:00.194Z,75
2023-03-23T07:50:00.143Z,75.3
2023-03-23T07:55:00.144Z,75.2
2023-03-23T08:00:00.160Z,75.2
2023-03-23T08:05:00.136Z,75.2
2023-03-23T08:10:00.158Z,75.5
2023-03-23T08:15:00.109Z,75.7
2023-03-23T08:20:00.164Z,75.6
2023-03-23T08:25:00.108Z,75.8
2023-03-23T08:30:00.139Z,76.6
2023-03-23T08:35:00.100Z,76.3
2023-03-23T08:40:00.124Z,77.3
2023-03-23T08:45:00.104Z,78
2023-03-23T08:50:00.147Z,78.1
2023-03-23T08:55:00.149Z,78.2
2023-03-23T09:00:00.127Z,77.7
2023-03-23T09:05:00.109Z,75.8
2023-03-23T09:10:00.133Z,73.9
2023-03-23T09:15:00.116Z,72.3
2023-03-23T09:20:00.231Z,69.7
2023-03-23T09:25:00.116Z,66.8
2023-03-23T09:30:00.190Z,64.9
2023-03-23T09:35:00.108Z,63.7
2023-03-23T09:40:06.581Z,63.8
2023-03-23T09:45:00.148Z,63.4
2023-03-23T09:50:00.195Z,62.3
2023-03-23T09:55:00.124Z,63.1
2023-03-23T10:00:00.182Z,61.8
2023-03-23T10:05:00.117Z,62.2
2023-03-23T10:10:00.187Z,62.5
2023-03-23T10:15:00.109Z,62.8
2023-03-23T10:20:00.127Z,62.7
2023-03-23T10:25:00.111Z,62.6
2023-03-23T10:30:00.233Z,62.5
2023-03-23T10:35:00.130Z,62.4
2023-03-23T10:40:00.143Z,61.7
2023-03-23T10:45:00.150Z,61.1
2023-03-23T10:50:00.173Z,60.6
2023-03-23T10:55:00.132Z,60.3
2023-03-23T11:00:00.191Z,58.7
2023-03-23T11:05:03.080Z,58.8
2023-03-23T11:10:00.172Z,58.7
2023-03-23T11:15:00.128Z,59.9
2023-03-23T11:20:00.117Z,58.3
2023-03-23T11:25:00.112Z,57.2
2023-03-23T11:30:00.165Z,56.3
2023-03-23T11:35:10.459Z,53.6
2023-03-23T11:40:00.169Z,54.6
2023-03-23T11:45:00.111Z,56
2023-03-23T11:50:00.170Z,57.4
2023-03-23T11:55:00.146Z,56.2
2023-03-23T12:00:00.200Z,56.8
2023-03-23T12:05:00.167Z,56.8
2023-03-23T12:10:00.149Z,57.4
2023-03-23T12:15:00.145Z,58.2
2023-03-23T12:20:00.087Z,57.9
2023-03-23T12:25:00.118Z,57.3
2023-03-23T12:30:00.153Z,56.5
2023-03-23T12:35:00.110Z,56.5
2023-03-23T12:40:00.116Z,55.9
2023-03-23T12:45:00.139Z,55.6
2023-03-23T12:50:00.150Z,54.8
2023-03-23T12:55:00.116Z,53.4
2023-03-23T13:00:00.178Z,51.8
2023-03-23T13:05:00.104Z,51
2023-03-23T13:10:00.178Z,50.3
2023-03-23T13:15:00.129Z,48.6
2023-03-23T13:20:00.139Z,47.6
2023-03-23T13:25:00.144Z,48.1
2023-03-23T13:30:00.157Z,48.6
2023-03-23T13:35:00.116Z,49
2023-03-23T13:40:00.153Z,49.2
2023-03-23T13:45:00.112Z,50.4
2023-03-23T13:50:00.162Z,52.3
2023-03-23T13:55:00.151Z,53.4
2023-03-23T14:00:00.149Z,55
2023-03-23T14:05:00.143Z,55.8
2023-03-23T14:10:00.166Z,56.6
2023-03-23T14:15:00.117Z,57.5
2023-03-23T14:20:00.109Z,58.2
2023-03-23T14:25:00.142Z,59.1
2023-03-23T14:30:00.161Z,59.5
2023-03-23T14:35:00.102Z,58.8
2023-03-23T14:40:00.102Z,59.2
2023-03-23T14:45:00.106Z,59.3
2023-03-23T14:50:00.175Z,57.9
2023-03-23T14:55:00.120Z,59.1
2023-03-23T15:00:00.146Z,58.2
2023-03-23T15:05:00.101Z,60.5
2023-03-23T15:10:00.202Z,60.8
2023-03-23T15:15:00.085Z,61.4
2023-03-23T15:20:00.116Z,62
2023-03-23T15:25:00.135Z,62.6
2023-03-23T15:30:00.165Z,63.1
2023-03-23T15:35:00.129Z,63.5
2023-03-23T15:40:00.125Z,63.8
2023-03-23T15:45:00.157Z,64.2
2023-03-23T15:50:00.174Z,64.3
2023-03-23T15:55:00.130Z,64.5
2023-03-23T16:00:00.197Z,64.7
2023-03-23T16:05:00.153Z,65
2023-03-23T16:10:00.172Z,65.3
2023-03-23T16:15:00.125Z,65.4
2023-03-23T16:20:00.106Z,65.5
2023-03-23T16:25:00.141Z,65.6
2023-03-23T16:30:04.121Z,65.8
2023-03-23T16:35:00.135Z,66
2023-03-23T16:40:00.204Z,66.4
2023-03-23T16:45:00.141Z,67
2023-03-23T16:50:00.237Z,67.5
2023-03-23T16:55:00.136Z,67.6
2023-03-23T17:00:00.169Z,67.6
2023-03-23T17:05:00.124Z,67.6
2023-03-23T17:10:00.135Z,67.6
2023-03-23T17:15:00.117Z,67.7
2023-03-23T17:20:00.118Z,67.9
2023-03-23T17:25:00.210Z,68
2023-03-23T17:30:00.178Z,68.1
2023-03-23T17:35:00.099Z,68.9
2023-03-23T17:40:00.130Z,70
2023-03-23T17:45:00.121Z,70.3
2023-03-23T17:50:00.139Z,70.6
2023-03-23T17:55:00.136Z,71
2023-03-23T18:00:00.157Z,71.7
2023-03-23T18:05:00.107Z,72
2023-03-23T18:10:00.146Z,72.2
2023-03-23T18:15:00.184Z,72.4
2023-03-23T18:20:00.116Z,72.5
2023-03-23T18:25:00.323Z,72.7
2023-03-23T18:30:00.297Z,72.8
2023-03-23T18:35:00.114Z,72.9
2023-03-23T18:40:00.132Z,73.2
2023-03-23T18:45:00.149Z,73.6
2023-03-23T18:50:00.150Z,74.3
2023-03-23T18:55:00.195Z,74.8
2023-03-23T19:00:00.235Z,74.5
2023-03-23T19:05:00.116Z,75.5
2023-03-23T19:10:00.178Z,76.1
2023-03-23T19:15:00.151Z,76.3
2023-03-23T19:20:00.103Z,76.3
2023-03-23T19:25:00.118Z,76.4
2023-03-23T19:30:00.205Z,76.5
2023-03-23T19:35:00.141Z,76.6
2023-03-23T19:40:01.493Z,76.7
2023-03-23T19:45:00.126Z,76.7
2023-03-23T19:50:00.136Z,76.9
2023-03-23T19:55:00.214Z,77.4
2023-03-23T20:00:00.130Z,77.5
2023-03-23T20:05:00.220Z,77.8
2023-03-23T20:10:00.501Z,78.2
2023-03-23T20:15:00.139Z,78.4
2023-03-23T20:20:00.131Z,78.6
2023-03-23T20:25:00.600Z,78.7
2023-03-23T20:30:03.808Z,79.2
2023-03-23T20:35:00.113Z,79
2023-03-23T20:40:00.134Z,79.9
2023-03-23T20:45:00.119Z,80
2023-03-23T20:50:00.187Z,80.3
2023-03-23T20:55:00.120Z,80.2
2023-03-23T21:00:00.178Z,80.2
2023-03-23T21:05:00.139Z,80.5
2023-03-23T21:10:00.184Z,81.1
2023-03-23T21:15:00.133Z,81.6
2023-03-23T21:20:00.120Z,82.9
2023-03-23T21:25:00.131Z,84.5
2023-03-23T21:30:00.229Z,85.2
2023-03-23T21:35:00.152Z,88.3
2023-03-23T21:40:00.157Z,88.7
2023-03-23T21:45:00.129Z,88.4
2023-03-23T21:50:00.139Z,88.3
2023-03-23T21:55:00.117Z,88.2
2023-03-23T22:00:00.163Z,89.7
2023-03-23T22:05:00.098Z,90.3
2023-03-23T22:10:00.151Z,90.4
2023-03-23T22:15:00.135Z,90.5
2023-03-23T22:20:00.113Z,90.5
2023-03-23T22:25:00.103Z,90.5
2023-03-23T22:30:00.135Z,90.3
2023-03-23T22:35:00.107Z,90.2
2023-03-23T22:40:00.117Z,90.1
2023-03-23T22:45:00.134Z,90
2023-03-23T22:50:00.137Z,89.8
2023-03-23T22:55:00.126Z,89.6
2023-03-23T23:00:00.195Z,89.2
2023-03-23T23:05:00.140Z,88.8
2023-03-23T23:10:00.234Z,88.4
2023-03-23T23:15:00.133Z,87.5
2023-03-23T23:20:00.140Z,87.7
2023-03-23T23:25:00.165Z,87.2
2023-03-23T23:30:00.180Z,86.8
2023-03-23T23:35:00.113Z,86.4
2023-03-23T23:40:00.136Z,86.2
2023-03-23T23:45:00.128Z,86.2
2023-03-23T23:50:00.173Z,86.1
2023-03-23T23:55:00.116Z,86
